sensor_id;sensor_type;location;lat;lon;timestamp;P1;durP1;ratioP1;P2;durP2;ratioP2
6438;SDS011;3252;52.540;13.290;2024-03-08T00:01:57;5.30;;;4.50;;
6438;SDS011;3252;52.540;13.290;2024-03-08T00:04:00;6.23;;;4.90;;
6438;SDS011;3252;52.540;13.290;2024-03-08T00:06:03;5.90;;;5.10;;
6438;SDS011;3252;52.540;13.290;2024-03-08T00:08:07;5.30;;;4.73;;
6438;SDS011;3252;52.540;13.290;2024-03-08T00:10:10;6.33;;;5.17;;
6438;SDS011;3252;52.540;13.290;2024-03-08T00:12:12;5.07;;;4.43;;
6438;SDS011;3252;52.540;13.290;2024-03-08T00:14:14;5.70;;;4.90;;
6438;SDS011;3252;52.540;13.290;2024-03-08T00:16:16;4.77;;;4.23;;
6438;SDS011;3252;52.540;13.290;2024-03-08T00:18:19;5.27;;;4.77;;
6438;SDS011;3252;52.540;13.290;2024-03-08T00:20:21;5.07;;;4.40;;
6438;SDS011;3252;52.540;13.290;2024-03-08T00:22:24;5.17;;;4.50;;
6438;SDS011;3252;52.540;13.290;2024-03-08T00:24:27;5.40;;;4.77;;
6438;SDS011;3252;52.540;13.290;2024-03-08T00:26:31;5.53;;;4.90;;
6438;SDS011;3252;52.540;13.290;2024-03-08T00:28:33;6.33;;;4.83;;
6438;SDS011;3252;52.540;13.290;2024-03-08T00:30:34;5.10;;;4.50;;
6438;SDS011;3252;52.540;13.290;2024-03-08T00:32:38;4.77;;;4.27;;
6438;SDS011;3252;52.540;13.290;2024-03-08T00:34:40;5.27;;;4.77;;
6438;SDS011;3252;52.540;13.290;2024-03-08T00:36:43;5.07;;;4.43;;
6438;SDS011;3252;52.540;13.290;2024-03-08T00:38:45;6.07;;;4.40;;
6438;SDS011;3252;52.540;13.290;2024-03-08T00:40:48;5.77;;;4.80;;
6438;SDS011;3252;52.540;13.290;2024-03-08T00:42:51;4.47;;;4.00;;
6438;SDS011;3252;52.540;13.290;2024-03-08T00:44:54;4.83;;;4.27;;
6438;SDS011;3252;52.540;13.290;2024-03-08T00:46:55;5.03;;;4.50;;
6438;SDS011;3252;52.540;13.290;2024-03-08T00:48:59;5.00;;;4.43;;
6438;SDS011;3252;52.540;13.290;2024-03-08T00:51:01;5.67;;;4.60;;
6438;SDS011;3252;52.540;13.290;2024-03-08T00:53:02;5.87;;;4.77;;
6438;SDS011;3252;52.540;13.290;2024-03-08T00:55:06;5.30;;;4.60;;
6438;SDS011;3252;52.540;13.290;2024-03-08T00:57:12;5.60;;;4.30;;
6438;SDS011;3252;52.540;13.290;2024-03-08T00:59:14;5.17;;;4.57;;
6438;SDS011;3252;52.540;13.290;2024-03-08T01:01:17;5.50;;;4.03;;
6438;SDS011;3252;52.540;13.290;2024-03-08T01:03:20;5.40;;;4.60;;
6438;SDS011;3252;52.540;13.290;2024-03-08T01:05:21;5.67;;;4.67;;
6438;SDS011;3252;52.540;13.290;2024-03-08T01:07:24;5.20;;;4.47;;
6438;SDS011;3252;52.540;13.290;2024-03-08T01:09:26;4.80;;;4.30;;
6438;SDS011;3252;52.540;13.290;2024-03-08T01:11:29;4.60;;;4.20;;
6438;SDS011;3252;52.540;13.290;2024-03-08T01:13:31;4.77;;;4.17;;
6438;SDS011;3252;52.540;13.290;2024-03-08T01:15:33;4.10;;;3.70;;
6438;SDS011;3252;52.540;13.290;2024-03-08T01:17:36;4.63;;;4.07;;
6438;SDS011;3252;52.540;13.290;2024-03-08T01:19:38;5.13;;;4.43;;
6438;SDS011;3252;52.540;13.290;2024-03-08T01:21:39;4.60;;;3.97;;
6438;SDS011;3252;52.540;13.290;2024-03-08T01:23:42;5.40;;;4.50;;
6438;SDS011;3252;52.540;13.290;2024-03-08T01:25:44;4.90;;;4.30;;
6438;SDS011;3252;52.540;13.290;2024-03-08T01:27:46;4.83;;;4.20;;
6438;SDS011;3252;52.540;13.290;2024-03-08T01:29:49;4.73;;;4.23;;
6438;SDS011;3252;52.540;13.290;2024-03-08T01:31:51;4.27;;;3.80;;
6438;SDS011;3252;52.540;13.290;2024-03-08T01:33:53;5.00;;;4.27;;
6438;SDS011;3252;52.540;13.290;2024-03-08T01:35:55;4.20;;;3.80;;
6438;SDS011;3252;52.540;13.290;2024-03-08T01:37:58;5.00;;;4.23;;
6438;SDS011;3252;52.540;13.290;2024-03-08T01:40:00;4.30;;;3.90;;
6438;SDS011;3252;52.540;13.290;2024-03-08T01:42:03;4.43;;;4.03;;
6438;SDS011;3252;52.540;13.290;2024-03-08T01:44:05;4.63;;;3.90;;
6438;SDS011;3252;52.540;13.290;2024-03-08T01:46:10;4.37;;;3.73;;
6438;SDS011;3252;52.540;13.290;2024-03-08T01:48:15;4.33;;;3.70;;
6438;SDS011;3252;52.540;13.290;2024-03-08T01:50:18;4.50;;;3.93;;
6438;SDS011;3252;52.540;13.290;2024-03-08T01:52:20;4.90;;;4.13;;
6438;SDS011;3252;52.540;13.290;2024-03-08T01:54:23;4.80;;;3.90;;
6438;SDS011;3252;52.540;13.290;2024-03-08T01:56:26;4.83;;;4.03;;
6438;SDS011;3252;52.540;13.290;2024-03-08T01:58:28;4.37;;;3.97;;
6438;SDS011;3252;52.540;13.290;2024-03-08T02:00:33;4.90;;;4.30;;
6438;SDS011;3252;52.540;13.290;2024-03-08T02:02:36;4.20;;;3.80;;
6438;SDS011;3252;52.540;13.290;2024-03-08T02:04:40;4.80;;;4.30;;
6438;SDS011;3252;52.540;13.290;2024-03-08T02:06:42;4.57;;;4.17;;
6438;SDS011;3252;52.540;13.290;2024-03-08T02:08:45;4.40;;;4.00;;
6438;SDS011;3252;52.540;13.290;2024-03-08T02:10:48;4.20;;;3.70;;
6438;SDS011;3252;52.540;13.290;2024-03-08T02:12:51;4.30;;;3.83;;
6438;SDS011;3252;52.540;13.290;2024-03-08T02:14:53;5.33;;;4.03;;
6438;SDS011;3252;52.540;13.290;2024-03-08T02:16:55;4.20;;;3.80;;
6438;SDS011;3252;52.540;13.290;2024-03-08T02:19:03;4.40;;;3.87;;
6438;SDS011;3252;52.540;13.290;2024-03-08T02:21:11;5.10;;;4.07;;
6438;SDS011;3252;52.540;13.290;2024-03-08T02:23:13;5.03;;;3.80;;
6438;SDS011;3252;52.540;13.290;2024-03-08T02:25:16;4.67;;;4.10;;
6438;SDS011;3252;52.540;13.290;2024-03-08T02:27:22;3.93;;;3.53;;
6438;SDS011;3252;52.540;13.290;2024-03-08T02:29:25;4.30;;;3.90;;
6438;SDS011;3252;52.540;13.290;2024-03-08T02:31:26;5.07;;;3.83;;
6438;SDS011;3252;52.540;13.290;2024-03-08T02:33:28;4.93;;;3.80;;
6438;SDS011;3252;52.540;13.290;2024-03-08T02:35:31;4.33;;;3.70;;
6438;SDS011;3252;52.540;13.290;2024-03-08T02:37:34;4.13;;;3.70;;
6438;SDS011;3252;52.540;13.290;2024-03-08T02:39:37;4.03;;;3.63;;
6438;SDS011;3252;52.540;13.290;2024-03-08T02:41:39;4.30;;;3.90;;
6438;SDS011;3252;52.540;13.290;2024-03-08T02:43:40;4.63;;;4.10;;
6438;SDS011;3252;52.540;13.290;2024-03-08T02:45:42;4.60;;;3.70;;
6438;SDS011;3252;52.540;13.290;2024-03-08T02:47:45;4.60;;;4.10;;
6438;SDS011;3252;52.540;13.290;2024-03-08T02:49:50;3.57;;;3.23;;
6438;SDS011;3252;52.540;13.290;2024-03-08T02:51:52;4.00;;;3.57;;
6438;SDS011;3252;52.540;13.290;2024-03-08T02:53:57;5.13;;;4.10;;
6438;SDS011;3252;52.540;13.290;2024-03-08T02:55:59;4.20;;;3.77;;
6438;SDS011;3252;52.540;13.290;2024-03-08T02:58:02;4.13;;;3.73;;
6438;SDS011;3252;52.540;13.290;2024-03-08T03:00:04;4.60;;;3.70;;
6438;SDS011;3252;52.540;13.290;2024-03-08T03:02:09;4.20;;;3.60;;
6438;SDS011;3252;52.540;13.290;2024-03-08T03:04:10;3.77;;;3.43;;
6438;SDS011;3252;52.540;13.290;2024-03-08T03:06:13;4.30;;;3.40;;
6438;SDS011;3252;52.540;13.290;2024-03-08T03:08:15;4.03;;;3.60;;
6438;SDS011;3252;52.540;13.290;2024-03-08T03:10:19;4.13;;;3.37;;
6438;SDS011;3252;52.540;13.290;2024-03-08T03:12:22;4.43;;;3.50;;
6438;SDS011;3252;52.540;13.290;2024-03-08T03:14:24;3.97;;;3.57;;
6438;SDS011;3252;52.540;13.290;2024-03-08T03:16:27;3.67;;;3.27;;
6438;SDS011;3252;52.540;13.290;2024-03-08T03:18:29;4.63;;;3.90;;
6438;SDS011;3252;52.540;13.290;2024-03-08T03:20:33;4.20;;;3.80;;
6438;SDS011;3252;52.540;13.290;2024-03-08T03:22:40;3.80;;;3.40;;
6438;SDS011;3252;52.540;13.290;2024-03-08T03:24:45;4.17;;;3.77;;
6438;SDS011;3252;52.540;13.290;2024-03-08T03:26:48;4.33;;;3.93;;
6438;SDS011;3252;52.540;13.290;2024-03-08T03:28:52;3.83;;;3.47;;
6438;SDS011;3252;52.540;13.290;2024-03-08T03:30:54;3.70;;;3.30;;
6438;SDS011;3252;52.540;13.290;2024-03-08T03:32:59;3.97;;;3.57;;
6438;SDS011;3252;52.540;13.290;2024-03-08T03:35:01;4.00;;;3.50;;
6438;SDS011;3252;52.540;13.290;2024-03-08T03:37:05;5.27;;;3.80;;
6438;SDS011;3252;52.540;13.290;2024-03-08T03:39:08;5.03;;;3.57;;
6438;SDS011;3252;52.540;13.290;2024-03-08T03:41:13;4.67;;;3.73;;
6438;SDS011;3252;52.540;13.290;2024-03-08T03:43:17;3.93;;;3.50;;
6438;SDS011;3252;52.540;13.290;2024-03-08T03:45:19;4.13;;;3.60;;
6438;SDS011;3252;52.540;13.290;2024-03-08T03:47:20;3.77;;;3.40;;
6438;SDS011;3252;52.540;13.290;2024-03-08T03:49:22;3.60;;;3.30;;
6438;SDS011;3252;52.540;13.290;2024-03-08T03:51:24;3.97;;;3.43;;
6438;SDS011;3252;52.540;13.290;2024-03-08T03:53:26;3.73;;;3.20;;
6438;SDS011;3252;52.540;13.290;2024-03-08T03:55:27;3.70;;;3.40;;
6438;SDS011;3252;52.540;13.290;2024-03-08T03:57:29;3.70;;;3.27;;
6438;SDS011;3252;52.540;13.290;2024-03-08T03:59:33;3.90;;;3.50;;
6438;SDS011;3252;52.540;13.290;2024-03-08T04:01:36;4.00;;;3.60;;
6438;SDS011;3252;52.540;13.290;2024-03-08T04:03:40;3.97;;;3.57;;
6438;SDS011;3252;52.540;13.290;2024-03-08T04:05:43;3.93;;;3.47;;
6438;SDS011;3252;52.540;13.290;2024-03-08T04:07:45;3.97;;;3.47;;
6438;SDS011;3252;52.540;13.290;2024-03-08T04:09:47;4.03;;;3.50;;
6438;SDS011;3252;52.540;13.290;2024-03-08T04:11:49;3.80;;;3.50;;
6438;SDS011;3252;52.540;13.290;2024-03-08T04:13:53;3.63;;;3.07;;
6438;SDS011;3252;52.540;13.290;2024-03-08T04:15:56;4.53;;;3.73;;
6438;SDS011;3252;52.540;13.290;2024-03-08T04:17:58;4.03;;;3.63;;
6438;SDS011;3252;52.540;13.290;2024-03-08T04:20:02;4.20;;;3.67;;
6438;SDS011;3252;52.540;13.290;2024-03-08T04:22:09;3.70;;;3.40;;
6438;SDS011;3252;52.540;13.290;2024-03-08T04:24:11;3.33;;;3.03;;
6438;SDS011;3252;52.540;13.290;2024-03-08T04:26:13;3.50;;;3.20;;
6438;SDS011;3252;52.540;13.290;2024-03-08T04:28:15;3.50;;;3.20;;
6438;SDS011;3252;52.540;13.290;2024-03-08T04:30:17;3.40;;;3.03;;
6438;SDS011;3252;52.540;13.290;2024-03-08T04:32:22;3.60;;;3.23;;
6438;SDS011;3252;52.540;13.290;2024-03-08T04:34:25;3.50;;;3.20;;
6438;SDS011;3252;52.540;13.290;2024-03-08T04:36:28;4.13;;;3.30;;
6438;SDS011;3252;52.540;13.290;2024-03-08T04:38:30;3.63;;;3.33;;
6438;SDS011;3252;52.540;13.290;2024-03-08T04:40:32;4.30;;;3.90;;
6438;SDS011;3252;52.540;13.290;2024-03-08T04:42:34;3.33;;;3.03;;
6438;SDS011;3252;52.540;13.290;2024-03-08T04:44:38;3.90;;;3.50;;
6438;SDS011;3252;52.540;13.290;2024-03-08T04:46:40;3.30;;;3.00;;
6438;SDS011;3252;52.540;13.290;2024-03-08T04:48:44;3.70;;;3.37;;
6438;SDS011;3252;52.540;13.290;2024-03-08T04:50:46;3.87;;;3.30;;
6438;SDS011;3252;52.540;13.290;2024-03-08T04:52:49;4.27;;;3.33;;
6438;SDS011;3252;52.540;13.290;2024-03-08T04:54:51;3.77;;;3.47;;
6438;SDS011;3252;52.540;13.290;2024-03-08T04:56:54;3.73;;;3.30;;
6438;SDS011;3252;52.540;13.290;2024-03-08T04:58:56;3.87;;;3.47;;
6438;SDS011;3252;52.540;13.290;2024-03-08T05:00:58;3.97;;;3.50;;
6438;SDS011;3252;52.540;13.290;2024-03-08T05:03:01;3.40;;;3.10;;
6438;SDS011;3252;52.540;13.290;2024-03-08T05:05:05;3.37;;;3.00;;
6438;SDS011;3252;52.540;13.290;2024-03-08T05:07:09;3.50;;;3.20;;
6438;SDS011;3252;52.540;13.290;2024-03-08T05:09:12;3.47;;;3.10;;
6438;SDS011;3252;52.540;13.290;2024-03-08T05:11:15;3.20;;;2.90;;
6438;SDS011;3252;52.540;13.290;2024-03-08T05:13:17;4.73;;;3.13;;
6438;SDS011;3252;52.540;13.290;2024-03-08T05:15:20;3.90;;;3.17;;
6438;SDS011;3252;52.540;13.290;2024-03-08T05:17:22;3.20;;;2.90;;
6438;SDS011;3252;52.540;13.290;2024-03-08T05:19:24;3.60;;;3.30;;
6438;SDS011;3252;52.540;13.290;2024-03-08T05:21:28;3.80;;;3.10;;
6438;SDS011;3252;52.540;13.290;2024-03-08T05:23:30;3.30;;;3.00;;
6438;SDS011;3252;52.540;13.290;2024-03-08T05:25:32;3.17;;;2.67;;
6438;SDS011;3252;52.540;13.290;2024-03-08T05:27:35;3.80;;;3.40;;
6438;SDS011;3252;52.540;13.290;2024-03-08T05:29:37;3.60;;;3.07;;
6438;SDS011;3252;52.540;13.290;2024-03-08T05:31:42;3.93;;;3.30;;
6438;SDS011;3252;52.540;13.290;2024-03-08T05:33:47;5.03;;;3.03;;
6438;SDS011;3252;52.540;13.290;2024-03-08T05:35:49;3.20;;;2.90;;
6438;SDS011;3252;52.540;13.290;2024-03-08T05:37:53;4.97;;;2.97;;
6438;SDS011;3252;52.540;13.290;2024-03-08T05:39:56;3.80;;;3.40;;
6438;SDS011;3252;52.540;13.290;2024-03-08T05:41:57;3.27;;;2.97;;
6438;SDS011;3252;52.540;13.290;2024-03-08T05:44:00;3.20;;;2.90;;
6438;SDS011;3252;52.540;13.290;2024-03-08T05:46:03;2.90;;;2.70;;
6438;SDS011;3252;52.540;13.290;2024-03-08T05:48:06;3.20;;;2.90;;
6438;SDS011;3252;52.540;13.290;2024-03-08T05:50:09;3.13;;;2.80;;
6438;SDS011;3252;52.540;13.290;2024-03-08T05:52:11;3.80;;;3.30;;
6438;SDS011;3252;52.540;13.290;2024-03-08T05:54:14;3.53;;;3.07;;
6438;SDS011;3252;52.540;13.290;2024-03-08T05:56:16;3.30;;;3.00;;
6438;SDS011;3252;52.540;13.290;2024-03-08T05:58:19;3.60;;;3.10;;
6438;SDS011;3252;52.540;13.290;2024-03-08T06:00:21;5.27;;;3.50;;
6438;SDS011;3252;52.540;13.290;2024-03-08T06:02:22;6.90;;;3.60;;
6438;SDS011;3252;52.540;13.290;2024-03-08T06:04:25;7.57;;;4.33;;
6438;SDS011;3252;52.540;13.290;2024-03-08T06:06:27;6.87;;;3.93;;
6438;SDS011;3252;52.540;13.290;2024-03-08T06:08:30;9.33;;;3.83;;
6438;SDS011;3252;52.540;13.290;2024-03-08T06:10:33;11.53;;;4.30;;
6438;SDS011;3252;52.540;13.290;2024-03-08T06:12:36;9.67;;;4.43;;
6438;SDS011;3252;52.540;13.290;2024-03-08T06:14:40;12.33;;;4.80;;
6438;SDS011;3252;52.540;13.290;2024-03-08T06:16:43;10.63;;;4.73;;
6438;SDS011;3252;52.540;13.290;2024-03-08T06:18:45;16.53;;;6.40;;
6438;SDS011;3252;52.540;13.290;2024-03-08T06:20:48;24.77;;;8.67;;
6438;SDS011;3252;52.540;13.290;2024-03-08T06:22:50;38.27;;;10.93;;
6438;SDS011;3252;52.540;13.290;2024-03-08T06:24:52;42.03;;;12.37;;
6438;SDS011;3252;52.540;13.290;2024-03-08T06:26:56;39.67;;;12.93;;
6438;SDS011;3252;52.540;13.290;2024-03-08T06:28:59;50.37;;;13.53;;
6438;SDS011;3252;52.540;13.290;2024-03-08T06:31:01;48.63;;;13.43;;
6438;SDS011;3252;52.540;13.290;2024-03-08T06:33:03;44.77;;;13.20;;
6438;SDS011;3252;52.540;13.290;2024-03-08T06:35:06;39.80;;;12.13;;
6438;SDS011;3252;52.540;13.290;2024-03-08T06:37:10;38.30;;;13.00;;
6438;SDS011;3252;52.540;13.290;2024-03-08T06:39:12;36.23;;;13.27;;
6438;SDS011;3252;52.540;13.290;2024-03-08T06:41:15;40.10;;;13.10;;
6438;SDS011;3252;52.540;13.290;2024-03-08T06:43:18;34.70;;;12.13;;
6438;SDS011;3252;52.540;13.290;2024-03-08T06:45:21;39.93;;;12.33;;
6438;SDS011;3252;52.540;13.290;2024-03-08T06:47:24;38.87;;;12.40;;
6438;SDS011;3252;52.540;13.290;2024-03-08T06:49:26;40.37;;;13.00;;
6438;SDS011;3252;52.540;13.290;2024-03-08T06:51:28;31.80;;;11.63;;
6438;SDS011;3252;52.540;13.290;2024-03-08T06:53:31;35.77;;;11.70;;
6438;SDS011;3252;52.540;13.290;2024-03-08T06:55:32;35.87;;;11.63;;
6438;SDS011;3252;52.540;13.290;2024-03-08T06:57:35;33.10;;;11.50;;
6438;SDS011;3252;52.540;13.290;2024-03-08T06:59:38;36.70;;;11.67;;
6438;SDS011;3252;52.540;13.290;2024-03-08T07:01:40;31.60;;;11.20;;
6438;SDS011;3252;52.540;13.290;2024-03-08T07:03:42;33.07;;;11.53;;
6438;SDS011;3252;52.540;13.290;2024-03-08T07:05:45;33.23;;;10.80;;
6438;SDS011;3252;52.540;13.290;2024-03-08T07:07:47;29.87;;;10.80;;
6438;SDS011;3252;52.540;13.290;2024-03-08T07:09:50;27.17;;;10.93;;
6438;SDS011;3252;52.540;13.290;2024-03-08T07:11:52;24.80;;;10.23;;
6438;SDS011;3252;52.540;13.290;2024-03-08T07:13:55;29.67;;;10.27;;
6438;SDS011;3252;52.540;13.290;2024-03-08T07:15:59;28.23;;;10.13;;
6438;SDS011;3252;52.540;13.290;2024-03-08T07:18:02;27.13;;;9.93;;
6438;SDS011;3252;52.540;13.290;2024-03-08T07:20:05;30.33;;;10.40;;
6438;SDS011;3252;52.540;13.290;2024-03-08T07:22:12;26.47;;;9.60;;
6438;SDS011;3252;52.540;13.290;2024-03-08T07:24:14;27.93;;;10.60;;
6438;SDS011;3252;52.540;13.290;2024-03-08T07:26:39;26.03;;;10.63;;
6438;SDS011;3252;52.540;13.290;2024-03-08T07:28:42;27.67;;;9.63;;
6438;SDS011;3252;52.540;13.290;2024-03-08T07:30:44;22.57;;;9.47;;
6438;SDS011;3252;52.540;13.290;2024-03-08T07:33:09;20.70;;;9.17;;
6438;SDS011;3252;52.540;13.290;2024-03-08T07:35:13;25.37;;;9.27;;
6438;SDS011;3252;52.540;13.290;2024-03-08T07:37:17;20.70;;;9.37;;
6438;SDS011;3252;52.540;13.290;2024-03-08T07:39:20;25.90;;;9.23;;
6438;SDS011;3252;52.540;13.290;2024-03-08T07:41:23;24.23;;;9.70;;
6438;SDS011;3252;52.540;13.290;2024-03-08T07:43:26;22.80;;;8.73;;
6438;SDS011;3252;52.540;13.290;2024-03-08T07:45:28;24.57;;;9.13;;
6438;SDS011;3252;52.540;13.290;2024-03-08T07:47:31;18.37;;;8.23;;
6438;SDS011;3252;52.540;13.290;2024-03-08T07:49:38;22.43;;;8.83;;
6438;SDS011;3252;52.540;13.290;2024-03-08T07:51:40;19.67;;;8.27;;
6438;SDS011;3252;52.540;13.290;2024-03-08T07:53:43;22.97;;;9.47;;
6438;SDS011;3252;52.540;13.290;2024-03-08T07:55:45;17.53;;;8.70;;
6438;SDS011;3252;52.540;13.290;2024-03-08T07:57:47;21.13;;;8.77;;
6438;SDS011;3252;52.540;13.290;2024-03-08T07:59:50;21.43;;;9.07;;
6438;SDS011;3252;52.540;13.290;2024-03-08T08:01:52;20.83;;;8.57;;
6438;SDS011;3252;52.540;13.290;2024-03-08T08:03:55;16.43;;;8.10;;
6438;SDS011;3252;52.540;13.290;2024-03-08T08:05:58;19.07;;;8.43;;
6438;SDS011;3252;52.540;13.290;2024-03-08T08:08:00;25.07;;;8.43;;
6438;SDS011;3252;52.540;13.290;2024-03-08T08:10:05;20.03;;;8.43;;
6438;SDS011;3252;52.540;13.290;2024-03-08T08:12:07;19.90;;;8.33;;
6438;SDS011;3252;52.540;13.290;2024-03-08T08:14:12;15.37;;;7.83;;
6438;SDS011;3252;52.540;13.290;2024-03-08T08:16:14;16.80;;;8.20;;
6438;SDS011;3252;52.540;13.290;2024-03-08T08:18:16;17.77;;;8.00;;
6438;SDS011;3252;52.540;13.290;2024-03-08T08:20:21;19.60;;;8.27;;
6438;SDS011;3252;52.540;13.290;2024-03-08T08:22:25;16.47;;;8.23;;
6438;SDS011;3252;52.540;13.290;2024-03-08T08:24:28;16.30;;;7.90;;
6438;SDS011;3252;52.540;13.290;2024-03-08T08:26:30;18.40;;;8.00;;
6438;SDS011;3252;52.540;13.290;2024-03-08T08:28:34;14.50;;;7.50;;
6438;SDS011;3252;52.540;13.290;2024-03-08T08:30:36;19.80;;;7.83;;
6438;SDS011;3252;52.540;13.290;2024-03-08T08:32:39;19.33;;;7.70;;
6438;SDS011;3252;52.540;13.290;2024-03-08T08:34:43;16.00;;;7.13;;
6438;SDS011;3252;52.540;13.290;2024-03-08T08:36:46;19.33;;;7.97;;
6438;SDS011;3252;52.540;13.290;2024-03-08T08:38:49;15.80;;;8.00;;
6438;SDS011;3252;52.540;13.290;2024-03-08T08:40:51;12.60;;;6.90;;
6438;SDS011;3252;52.540;13.290;2024-03-08T08:42:53;16.60;;;8.03;;
6438;SDS011;3252;52.540;13.290;2024-03-08T08:44:57;14.23;;;7.40;;
6438;SDS011;3252;52.540;13.290;2024-03-08T08:47:00;18.00;;;7.85;;
6438;SDS011;3252;52.540;13.290;2024-03-08T08:49:03;13.83;;;7.00;;
6438;SDS011;3252;52.540;13.290;2024-03-08T08:51:06;14.57;;;7.33;;
6438;SDS011;3252;52.540;13.290;2024-03-08T08:53:12;14.67;;;7.37;;
6438;SDS011;3252;52.540;13.290;2024-03-08T08:55:16;14.03;;;7.13;;
6438;SDS011;3252;52.540;13.290;2024-03-08T08:57:21;14.03;;;7.47;;
6438;SDS011;3252;52.540;13.290;2024-03-08T08:59:23;13.15;;;6.78;;
6438;SDS011;3252;52.540;13.290;2024-03-08T09:01:25;17.17;;;7.82;;
6438;SDS011;3252;52.540;13.290;2024-03-08T09:03:29;13.73;;;6.93;;
6438;SDS011;3252;52.540;13.290;2024-03-08T09:05:31;15.63;;;7.70;;
6438;SDS011;3252;52.540;13.290;2024-03-08T09:07:34;16.55;;;7.20;;
6438;SDS011;3252;52.540;13.290;2024-03-08T09:09:36;12.43;;;6.60;;
6438;SDS011;3252;52.540;13.290;2024-03-08T09:11:40;13.90;;;7.07;;
6438;SDS011;3252;52.540;13.290;2024-03-08T09:13:44;11.60;;;6.73;;
6438;SDS011;3252;52.540;13.290;2024-03-08T09:15:47;12.52;;;6.82;;
6438;SDS011;3252;52.540;13.290;2024-03-08T09:17:49;13.27;;;7.57;;
6438;SDS011;3252;52.540;13.290;2024-03-08T09:19:52;10.57;;;6.05;;
6438;SDS011;3252;52.540;13.290;2024-03-08T09:21:54;13.98;;;6.57;;
6438;SDS011;3252;52.540;13.290;2024-03-08T09:23:57;11.63;;;6.40;;
6438;SDS011;3252;52.540;13.290;2024-03-08T09:25:59;11.23;;;6.23;;
6438;SDS011;3252;52.540;13.290;2024-03-08T09:28:02;12.10;;;6.40;;
6438;SDS011;3252;52.540;13.290;2024-03-08T09:30:06;11.20;;;6.57;;
6438;SDS011;3252;52.540;13.290;2024-03-08T09:32:08;13.33;;;6.63;;
6438;SDS011;3252;52.540;13.290;2024-03-08T09:34:12;11.50;;;6.30;;
6438;SDS011;3252;52.540;13.290;2024-03-08T09:36:13;12.47;;;6.57;;
6438;SDS011;3252;52.540;13.290;2024-03-08T09:38:15;10.90;;;6.43;;
6438;SDS011;3252;52.540;13.290;2024-03-08T09:40:18;12.33;;;6.47;;
6438;SDS011;3252;52.540;13.290;2024-03-08T09:42:20;11.43;;;6.17;;
6438;SDS011;3252;52.540;13.290;2024-03-08T09:44:23;11.97;;;6.33;;
6438;SDS011;3252;52.540;13.290;2024-03-08T09:46:26;14.37;;;6.63;;
6438;SDS011;3252;52.540;13.290;2024-03-08T09:48:28;11.43;;;6.50;;
6438;SDS011;3252;52.540;13.290;2024-03-08T09:50:31;9.73;;;5.68;;
6438;SDS011;3252;52.540;13.290;2024-03-08T09:52:33;10.90;;;6.27;;
6438;SDS011;3252;52.540;13.290;2024-03-08T09:54:35;9.75;;;6.13;;
6438;SDS011;3252;52.540;13.290;2024-03-08T09:56:38;11.70;;;5.90;;
6438;SDS011;3252;52.540;13.290;2024-03-08T09:58:41;11.95;;;6.03;;
6438;SDS011;3252;52.540;13.290;2024-03-08T10:01:02;9.38;;;5.65;;
6438;SDS011;3252;52.540;13.290;2024-03-08T10:03:04;9.23;;;6.10;;
6438;SDS011;3252;52.540;13.290;2024-03-08T10:05:07;9.20;;;6.03;;
6438;SDS011;3252;52.540;13.290;2024-03-08T10:07:10;9.55;;;5.85;;
6438;SDS011;3252;52.540;13.290;2024-03-08T10:09:12;11.20;;;6.20;;
6438;SDS011;3252;52.540;13.290;2024-03-08T10:11:14;9.53;;;5.97;;
6438;SDS011;3252;52.540;13.290;2024-03-08T10:13:17;12.10;;;6.03;;
6438;SDS011;3252;52.540;13.290;2024-03-08T10:15:20;9.70;;;5.50;;
6438;SDS011;3252;52.540;13.290;2024-03-08T10:17:23;11.03;;;5.77;;
6438;SDS011;3252;52.540;13.290;2024-03-08T10:19:27;9.25;;;5.80;;
6438;SDS011;3252;52.540;13.290;2024-03-08T10:21:30;9.77;;;5.40;;
6438;SDS011;3252;52.540;13.290;2024-03-08T10:23:33;11.25;;;5.88;;
6438;SDS011;3252;52.540;13.290;2024-03-08T10:25:35;9.00;;;5.27;;
6438;SDS011;3252;52.540;13.290;2024-03-08T10:27:38;8.90;;;5.70;;
6438;SDS011;3252;52.540;13.290;2024-03-08T10:29:41;9.60;;;5.50;;
6438;SDS011;3252;52.540;13.290;2024-03-08T10:31:45;8.97;;;5.40;;
6438;SDS011;3252;52.540;13.290;2024-03-08T10:33:49;11.30;;;6.07;;
6438;SDS011;3252;52.540;13.290;2024-03-08T10:35:51;8.43;;;5.40;;
6438;SDS011;3252;52.540;13.290;2024-03-08T10:37:54;8.93;;;5.47;;
6438;SDS011;3252;52.540;13.290;2024-03-08T10:40:02;8.50;;;5.50;;
6438;SDS011;3252;52.540;13.290;2024-03-08T10:42:11;8.10;;;5.10;;
6438;SDS011;3252;52.540;13.290;2024-03-08T10:44:21;9.00;;;5.80;;
6438;SDS011;3252;52.540;13.290;2024-03-08T10:46:30;8.20;;;5.40;;
6438;SDS011;3252;52.540;13.290;2024-03-08T10:48:33;10.53;;;5.87;;
6438;SDS011;3252;52.540;13.290;2024-03-08T10:50:41;10.03;;;5.80;;
6438;SDS011;3252;52.540;13.290;2024-03-08T10:52:47;8.23;;;5.38;;
6438;SDS011;3252;52.540;13.290;2024-03-08T10:54:51;8.23;;;5.53;;
6438;SDS011;3252;52.540;13.290;2024-03-08T10:56:54;9.30;;;5.50;;
6438;SDS011;3252;52.540;13.290;2024-03-08T10:58:57;8.27;;;5.40;;
6438;SDS011;3252;52.540;13.290;2024-03-08T11:00:59;9.25;;;5.70;;
6438;SDS011;3252;52.540;13.290;2024-03-08T11:03:02;8.23;;;5.13;;
6438;SDS011;3252;52.540;13.290;2024-03-08T11:05:03;8.88;;;4.72;;
6438;SDS011;3252;52.540;13.290;2024-03-08T11:07:08;8.45;;;5.10;;
6438;SDS011;3252;52.540;13.290;2024-03-08T11:09:29;9.23;;;5.03;;
6438;SDS011;3252;52.540;13.290;2024-03-08T11:11:32;6.93;;;4.60;;
6438;SDS011;3252;52.540;13.290;2024-03-08T11:13:34;7.77;;;5.00;;
6438;SDS011;3252;52.540;13.290;2024-03-08T11:15:38;8.50;;;5.00;;
6438;SDS011;3252;52.540;13.290;2024-03-08T11:17:40;7.23;;;4.83;;
6438;SDS011;3252;52.540;13.290;2024-03-08T11:19:46;8.93;;;5.50;;
6438;SDS011;3252;52.540;13.290;2024-03-08T11:21:51;8.52;;;5.20;;
6438;SDS011;3252;52.540;13.290;2024-03-08T11:24:00;7.40;;;5.07;;
6438;SDS011;3252;52.540;13.290;2024-03-08T11:26:03;7.90;;;5.27;;
6438;SDS011;3252;52.540;13.290;2024-03-08T11:28:14;7.03;;;4.47;;
6438;SDS011;3252;52.540;13.290;2024-03-08T11:30:21;5.80;;;4.63;;
6438;SDS011;3252;52.540;13.290;2024-03-08T11:32:26;6.53;;;4.20;;
6438;SDS011;3252;52.540;13.290;2024-03-08T11:34:29;6.10;;;4.60;;
6438;SDS011;3252;52.540;13.290;2024-03-08T11:36:31;7.50;;;4.70;;
6438;SDS011;3252;52.540;13.290;2024-03-08T11:38:39;6.70;;;4.43;;
6438;SDS011;3252;52.540;13.290;2024-03-08T11:40:42;5.67;;;4.50;;
6438;SDS011;3252;52.540;13.290;2024-03-08T11:42:44;7.15;;;4.93;;
6438;SDS011;3252;52.540;13.290;2024-03-08T11:44:50;7.17;;;4.90;;
6438;SDS011;3252;52.540;13.290;2024-03-08T11:46:52;6.90;;;4.97;;
6438;SDS011;3252;52.540;13.290;2024-03-08T11:48:55;6.57;;;4.65;;
6438;SDS011;3252;52.540;13.290;2024-03-08T11:50:58;7.13;;;4.70;;
6438;SDS011;3252;52.540;13.290;2024-03-08T11:53:02;7.00;;;4.70;;
6438;SDS011;3252;52.540;13.290;2024-03-08T11:55:05;7.80;;;4.57;;
6438;SDS011;3252;52.540;13.290;2024-03-08T11:57:10;4.90;;;4.13;;
6438;SDS011;3252;52.540;13.290;2024-03-08T11:59:11;6.50;;;4.60;;
6438;SDS011;3252;52.540;13.290;2024-03-08T12:01:13;5.65;;;4.20;;
6438;SDS011;3252;52.540;13.290;2024-03-08T12:03:17;6.43;;;4.80;;
6438;SDS011;3252;52.540;13.290;2024-03-08T12:05:20;6.50;;;4.67;;
6438;SDS011;3252;52.540;13.290;2024-03-08T12:07:22;5.97;;;4.53;;
6438;SDS011;3252;52.540;13.290;2024-03-08T12:09:25;8.33;;;4.80;;
6438;SDS011;3252;52.540;13.290;2024-03-08T12:11:27;5.80;;;4.23;;
6438;SDS011;3252;52.540;13.290;2024-03-08T12:13:33;5.50;;;4.10;;
6438;SDS011;3252;52.540;13.290;2024-03-08T12:15:35;6.47;;;4.27;;
6438;SDS011;3252;52.540;13.290;2024-03-08T12:17:38;5.93;;;4.33;;
6438;SDS011;3252;52.540;13.290;2024-03-08T12:19:40;5.57;;;4.07;;
6438;SDS011;3252;52.540;13.290;2024-03-08T12:21:48;6.67;;;4.93;;
6438;SDS011;3252;52.540;13.290;2024-03-08T12:24:01;7.27;;;4.67;;
6438;SDS011;3252;52.540;13.290;2024-03-08T12:26:11;5.37;;;4.00;;
6438;SDS011;3252;52.540;13.290;2024-03-08T12:28:14;8.03;;;4.63;;
6438;SDS011;3252;52.540;13.290;2024-03-08T12:30:21;5.80;;;4.30;;